This is the latest recevied weather packets stored in our database for station/object TA3MHA. If no packets are shown the sender has not sent any weather packets the latest 10 day(s).
| Time | Temp. | Humidity | Pressure | Rain* | Wind** | Luminosity | Snow |
|---|---|---|---|---|---|---|---|
| 1777548600 | 21.67° C | 48% | - | 0 mm | - | 778 W/m² | - |
| 1777548301 | 22.22° C | 47% | - | 0 mm | - | 780 W/m² | - |
| 1777548000 | 22.22° C | 44% | - | 0 mm | - | 789 W/m² | - |
| 1777547700 | 21.67° C | 47% | - | 0 mm | - | 792 W/m² | - |
| 1777547400 | 21.67° C | 47% | - | 0 mm | - | 798 W/m² | - |
| 1777547100 | 21.67° C | 46% | - | 0 mm | - | 807 W/m² | - |
| 1777546800 | 22.22° C | 44% | - | 0 mm | - | 810 W/m² | - |
| 1777546500 | 22.22° C | 45% | - | 0 mm | - | 814 W/m² | - |
| 1777546200 | 21.67° C | 45% | - | 0 mm | - | 820 W/m² | - |
| 1777545900 | 21.11° C | 45% | - | 0 mm | - | 824 W/m² | - |
| 1777545600 | 21.11° C | 46% | - | 0 mm | - | 832 W/m² | - |
| 1777545300 | 21.11° C | 47% | - | 0 mm | - | 833 W/m² | - |
| 1777545000 | 21.67° C | 44% | - | 0 mm | - | 838 W/m² | - |
| 1777544700 | 22.22° C | 41% | - | 0 mm | - | 841 W/m² | - |
| 1777544400 | 21.67° C | 43% | - | 0 mm | - | 844 W/m² | - |
| 1777544100 | 21.67° C | 44% | - | 0 mm | - | 842 W/m² | - |
| 1777543800 | 21.11° C | 45% | - | 0 mm | - | 843 W/m² | - |
| 1777543500 | 21.67° C | 44% | - | 0 mm | - | 845 W/m² | - |
| 1777543200 | 21.11° C | 43% | - | 0 mm | - | 849 W/m² | - |
| 1777542900 | 20.56° C | 43% | - | 0 mm | - | 849 W/m² | - |
| 1777542600 | 20.56° C | 45% | - | 0 mm | - | 844 W/m² | - |
| 1777542301 | 20.56° C | 47% | - | 0 mm | - | 843 W/m² | - |
| 1777542000 | 21.11° C | 47% | - | 0 mm | - | 846 W/m² | - |
| 1777541701 | 21.11° C | 45% | - | 0 mm | - | 842 W/m² | - |
| 1777541401 | 21.11° C | 46% | - | 0 mm | - | 833 W/m² | - |
* Rain latest hour (hover to see other rain measurements)
** Current wind speed in m/s (hover to see current wind gust speed)